createdAt,value
2023-03-22T00:02:34.447Z,25.63
2023-03-22T00:05:21.861Z,26.67
2023-03-22T00:08:09.913Z,23.87
2023-03-22T00:10:57.309Z,27.53
2023-03-22T00:13:46.950Z,29.43
2023-03-22T00:16:34.382Z,25.73
2023-03-22T00:19:21.775Z,24.30
2023-03-22T00:22:09.195Z,22.57
2023-03-22T00:24:56.632Z,22.90
2023-03-22T00:27:44.473Z,25.47
2023-03-22T00:30:31.848Z,29.67
2023-03-22T00:33:19.199Z,26.83
2023-03-22T00:36:08.611Z,26.03
2023-03-22T00:38:55.945Z,24.17
2023-03-22T00:41:43.309Z,25.93
2023-03-22T00:44:30.737Z,27.33
2023-03-22T00:47:18.106Z,24.90
2023-03-22T00:50:06.533Z,26.37
2023-03-22T00:52:53.914Z,28.53
2023-03-22T00:55:41.265Z,23.63
2023-03-22T00:58:28.614Z,28.43
2023-03-22T01:01:16.037Z,24.43
2023-03-22T01:04:04.961Z,25.67
2023-03-22T01:06:59.269Z,27.50
2023-03-22T01:09:46.689Z,24.43
2023-03-22T01:12:34.076Z,27.03
2023-03-22T01:15:23.196Z,27.80
2023-03-22T01:18:10.659Z,28.53
2023-03-22T01:20:59.440Z,26.00
2023-03-22T01:23:46.814Z,23.93
2023-03-22T01:26:35.623Z,29.37
2023-03-22T01:29:23.175Z,29.10
2023-03-22T01:32:10.778Z,28.73
2023-03-22T01:34:58.150Z,28.73
2023-03-22T01:37:45.604Z,25.70
2023-03-22T01:40:33.107Z,26.00
2023-03-22T01:43:20.769Z,28.60
2023-03-22T01:46:08.697Z,26.10
2023-03-22T01:48:56.247Z,27.53
2023-03-22T01:51:45.342Z,25.37
2023-03-22T01:54:39.155Z,26.53
2023-03-22T01:57:26.681Z,28.23
2023-03-22T02:00:15.778Z,26.17
2023-03-22T02:03:03.318Z,30.73
2023-03-22T02:05:50.807Z,24.83
2023-03-22T02:08:40.497Z,23.23
2023-03-22T02:11:44.333Z,27.10
2023-03-22T02:14:53.065Z,27.90
2023-03-22T02:17:51.316Z,28.10
2023-03-22T02:20:39.826Z,25.30
2023-03-22T02:23:38.458Z,27.13
2023-03-22T02:26:46.887Z,25.70
2023-03-22T02:29:38.851Z,25.70
2023-03-22T02:32:45.504Z,28.90
2023-03-22T02:35:32.895Z,25.10
2023-03-22T02:38:42.351Z,23.60
2023-03-22T02:41:47.742Z,27.87
2023-03-22T02:44:43.135Z,29.80
2023-03-22T02:47:42.464Z,33.70
2023-03-22T02:50:44.802Z,29.87
2023-03-22T02:53:51.142Z,30.63
2023-03-22T02:56:47.576Z,30.23
2023-03-22T02:59:38.225Z,33.40
2023-03-22T03:02:27.531Z,30.67
2023-03-22T03:05:16.396Z,35.10
2023-03-22T03:08:04.608Z,25.67
2023-03-22T03:10:52.506Z,27.40
2023-03-22T03:13:39.863Z,26.20
2023-03-22T03:16:29.864Z,24.93
2023-03-22T03:19:25.205Z,27.63
2023-03-22T03:22:36.174Z,26.27
2023-03-22T03:25:23.551Z,23.30
2023-03-22T03:28:13.703Z,25.97
2023-03-22T03:31:04.246Z,23.67
2023-03-22T03:33:55.477Z,24.57
2023-03-22T03:36:45.252Z,25.50
2023-03-22T03:39:34.567Z,30.83
2023-03-22T03:42:23.326Z,39.23
2023-03-22T03:45:10.950Z,66.20
2023-03-22T03:48:00.913Z,55.40
2023-03-22T03:50:50.271Z,62.90
2023-03-22T03:53:37.673Z,59.80
2023-03-22T03:56:25.055Z,35.83
2023-03-22T03:59:12.501Z,41.77
2023-03-22T04:02:00.568Z,68.37
2023-03-22T04:04:48.031Z,54.63
2023-03-22T04:07:35.539Z,29.13
2023-03-22T04:10:23.330Z,38.60
2023-03-22T04:13:10.817Z,26.50
2023-03-22T04:16:01.910Z,24.83
2023-03-22T04:18:49.265Z,25.70
2023-03-22T04:21:36.599Z,22.70
2023-03-22T04:24:23.952Z,25.40
2023-03-22T04:27:11.259Z,22.57
2023-03-22T04:30:00.906Z,21.07
2023-03-22T04:32:48.790Z,20.10
2023-03-22T04:35:36.158Z,25.77
2023-03-22T04:38:25.207Z,19.50
2023-03-22T04:41:12.719Z,19.90
2023-03-22T04:44:03.307Z,26.63
2023-03-22T04:46:50.723Z,20.23
2023-03-22T04:49:38.505Z,20.33
2023-03-22T04:52:26.380Z,20.23
2023-03-22T04:55:13.722Z,18.70
2023-03-22T04:58:01.135Z,18.97
2023-03-22T05:00:48.855Z,22.37
2023-03-22T05:03:37.201Z,19.07
2023-03-22T05:06:24.653Z,18.03
2023-03-22T05:09:12.580Z,19.63
2023-03-22T05:11:59.949Z,19.33
2023-03-22T05:14:47.369Z,17.17
2023-03-22T05:17:34.788Z,19.40
2023-03-22T05:20:22.188Z,17.90
2023-03-22T05:23:10.063Z,17.50
2023-03-22T05:25:58.222Z,18.33
2023-03-22T05:28:45.909Z,21.77
2023-03-22T05:31:34.473Z,20.50
2023-03-22T05:34:21.941Z,15.20
2023-03-22T05:37:09.312Z,17.83
2023-03-22T05:39:56.774Z,18.07
2023-03-22T05:42:44.659Z,18.40
2023-03-22T05:45:32.514Z,16.07
2023-03-22T05:48:19.933Z,17.43
2023-03-22T05:51:13.383Z,20.83
2023-03-22T05:54:00.804Z,18.83
2023-03-22T05:56:48.286Z,18.00
2023-03-22T05:59:35.676Z,18.90
2023-03-22T06:02:23.141Z,18.20
2023-03-22T06:05:11.212Z,16.87
2023-03-22T06:07:59.090Z,17.37
2023-03-22T06:10:48.935Z,16.37
2023-03-22T06:13:37.285Z,18.63
2023-03-22T06:16:24.681Z,15.70
2023-03-22T06:19:12.054Z,14.37
2023-03-22T06:21:59.454Z,15.53
2023-03-22T06:24:46.922Z,14.00
2023-03-22T06:27:34.390Z,13.20
2023-03-22T06:30:21.743Z,14.87
2023-03-22T06:33:09.128Z,14.03
2023-03-22T06:35:56.492Z,15.80
2023-03-22T06:38:43.986Z,37.90
2023-03-22T06:41:31.583Z,36.77
2023-03-22T06:44:19.294Z,15.03
2023-03-22T06:47:06.666Z,12.07
2023-03-22T06:49:54.289Z,14.75
2023-03-22T06:52:41.701Z,17.20
2023-03-22T06:55:33.145Z,12.77
2023-03-22T06:58:20.626Z,11.37
2023-03-22T07:01:08.018Z,10.87
2023-03-22T07:03:55.382Z,12.03
2023-03-22T07:06:42.774Z,12.00
2023-03-22T07:09:30.241Z,13.47
2023-03-22T07:12:18.581Z,10.37
2023-03-22T07:15:06.277Z,12.13
2023-03-22T07:17:53.601Z,13.57
2023-03-22T07:20:42.299Z,12.33
2023-03-22T07:23:30.290Z,13.70
2023-03-22T07:26:17.658Z,9.87
2023-03-22T07:29:05.038Z,11.00
2023-03-22T07:31:52.479Z,12.80
2023-03-22T07:34:39.862Z,11.23
2023-03-22T07:37:27.239Z,11.10
2023-03-22T07:40:15.307Z,12.27
2023-03-22T07:43:02.734Z,13.87
2023-03-22T07:45:50.848Z,11.07
2023-03-22T07:48:39.213Z,13.03
2023-03-22T07:51:26.797Z,13.00
2023-03-22T07:54:30.526Z,12.00
2023-03-22T07:57:20.201Z,12.07
2023-03-22T08:00:10.878Z,11.60
2023-03-22T08:02:58.406Z,15.17
2023-03-22T08:05:45.854Z,12.33
2023-03-22T08:08:33.521Z,10.93
2023-03-22T08:11:20.961Z,11.80
2023-03-22T08:14:08.929Z,11.63
2023-03-22T08:16:56.391Z,11.67
2023-03-22T08:19:43.745Z,12.00
2023-03-22T08:22:31.148Z,11.93
2023-03-22T08:25:18.571Z,12.43
2023-03-22T08:28:06.129Z,12.10
2023-03-22T08:30:53.522Z,13.43
2023-03-22T08:33:40.934Z,11.60
2023-03-22T08:36:29.053Z,15.33
2023-03-22T08:39:16.437Z,13.87
2023-03-22T08:42:04.031Z,16.70
2023-03-22T08:44:52.468Z,16.63
2023-03-22T08:47:40.100Z,20.63
2023-03-22T08:50:27.448Z,16.57
2023-03-22T08:53:14.810Z,23.20
2023-03-22T08:56:02.380Z,16.63
2023-03-22T08:58:49.732Z,18.20
2023-03-22T09:01:38.003Z,17.10
2023-03-22T09:04:26.187Z,17.13
2023-03-22T09:07:13.702Z,15.13
2023-03-22T09:10:01.814Z,16.43
2023-03-22T09:12:49.210Z,16.73
2023-03-22T09:15:37.022Z,16.80
2023-03-22T09:18:25.884Z,15.10
2023-03-22T09:21:13.367Z,16.23
2023-03-22T09:24:00.833Z,14.57
2023-03-22T09:26:48.356Z,14.93
2023-03-22T09:29:35.857Z,14.70
2023-03-22T09:32:23.278Z,15.60
2023-03-22T09:35:10.772Z,16.20
2023-03-22T09:37:59.986Z,17.27
2023-03-22T09:40:53.347Z,13.43
2023-03-22T09:43:43.006Z,13.77
2023-03-22T09:46:37.969Z,15.63
2023-03-22T09:49:26.923Z,13.63
2023-03-22T09:52:16.076Z,17.07
2023-03-22T09:55:03.532Z,13.67
2023-03-22T09:57:55.813Z,11.87
2023-03-22T10:00:48.937Z,13.13
2023-03-22T10:03:36.463Z,11.33
2023-03-22T10:06:26.045Z,10.87
2023-03-22T10:09:14.011Z,10.43
2023-03-22T10:12:11.402Z,11.17
2023-03-22T10:15:04.840Z,10.13
2023-03-22T10:17:53.906Z,10.47
2023-03-22T10:20:44.601Z,7.03
2023-03-22T10:23:52.935Z,9.20
2023-03-22T10:26:42.279Z,11.27
2023-03-22T10:29:39.528Z,6.10
2023-03-22T10:32:32.601Z,6.33
2023-03-22T10:35:20.304Z,8.13
2023-03-22T10:38:10.168Z,8.87
2023-03-22T10:40:58.997Z,7.13
2023-03-22T10:43:48.802Z,7.93
2023-03-22T10:46:38.817Z,6.43
2023-03-22T10:49:31.524Z,7.20
2023-03-22T10:52:36.832Z,6.50
2023-03-22T10:55:24.807Z,7.40
2023-03-22T10:58:12.476Z,6.37
2023-03-22T11:01:03.797Z,7.43
2023-03-22T11:03:52.722Z,8.90
2023-03-22T11:06:48.776Z,6.50
2023-03-22T11:09:36.132Z,13.27
2023-03-22T11:12:23.679Z,8.27
2023-03-22T11:15:25.217Z,8.93
2023-03-22T11:18:15.653Z,5.07
2023-03-22T11:21:12.022Z,14.97
2023-03-22T11:24:04.853Z,6.67
2023-03-22T11:27:11.266Z,6.40
2023-03-22T11:30:00.165Z,8.80
2023-03-22T11:32:47.911Z,8.57
2023-03-22T11:35:36.678Z,6.10
2023-03-22T11:38:26.237Z,6.13
2023-03-22T11:41:35.261Z,4.80
2023-03-22T11:44:23.271Z,6.50
2023-03-22T11:47:13.055Z,3.80
2023-03-22T11:50:04.365Z,5.97
2023-03-22T11:52:53.919Z,10.43
2023-03-22T11:55:42.502Z,3.93
2023-03-22T11:58:42.612Z,7.50
2023-03-22T12:01:38.829Z,5.27
2023-03-22T12:04:28.142Z,5.80
2023-03-22T12:07:17.784Z,4.97
2023-03-22T12:10:13.694Z,8.03
2023-03-22T12:13:04.891Z,5.47
2023-03-22T12:16:12.650Z,6.43
2023-03-22T12:19:18.264Z,5.57
2023-03-22T12:22:10.926Z,6.97
2023-03-22T12:24:59.267Z,5.53
2023-03-22T12:27:49.073Z,7.07
2023-03-22T12:30:47.816Z,6.80
2023-03-22T12:33:38.459Z,5.57
2023-03-22T12:36:49.359Z,7.07
2023-03-22T12:39:39.798Z,4.47
2023-03-22T12:42:40.670Z,4.83
2023-03-22T12:45:39.383Z,6.47
2023-03-22T12:48:29.972Z,7.10
2023-03-22T12:51:17.419Z,6.47
2023-03-22T12:54:05.827Z,4.33
2023-03-22T12:56:54.079Z,7.63
2023-03-22T12:59:43.156Z,6.27
2023-03-22T13:02:34.214Z,6.87
2023-03-22T13:05:21.677Z,4.63
2023-03-22T13:08:10.180Z,7.60
2023-03-22T13:10:57.540Z,6.63
2023-03-22T13:13:46.545Z,6.03
2023-03-22T13:16:52.469Z,7.20
2023-03-22T13:19:40.009Z,5.50
2023-03-22T13:22:28.787Z,9.63
2023-03-22T13:25:19.531Z,9.50
2023-03-22T13:28:21.969Z,9.40
2023-03-22T13:31:29.412Z,6.27
2023-03-22T13:34:19.265Z,10.27
2023-03-22T13:37:11.193Z,7.80
2023-03-22T13:40:02.090Z,8.67
2023-03-22T13:42:51.002Z,7.57
2023-03-22T13:45:57.540Z,7.60
2023-03-22T13:48:50.582Z,6.37
2023-03-22T13:51:41.373Z,8.20
2023-03-22T13:54:35.123Z,6.10
2023-03-22T13:57:39.613Z,5.67
2023-03-22T14:00:30.241Z,6.60
2023-03-22T14:03:25.251Z,9.63
2023-03-22T14:06:19.496Z,8.27
2023-03-22T14:09:16.054Z,8.87
2023-03-22T14:12:09.274Z,6.93
2023-03-22T14:14:58.131Z,9.23
2023-03-22T14:18:05.887Z,7.60
2023-03-22T14:21:06.030Z,7.20
